Tiempo atmosférico en la estación meteorológica de Osuna, Sevilla (255 m.)



Fecha
DESCASC
Temp. máxima en grados centígrados (hora)
DESCASC
Temp. mínima en grados centígrados (hora)
DESCASC
Temp. media en grados centígrados
DESCASC
Racha de viento máxima en m/sg (hora)
DESCASC
Velocidad máxima media en intervalos de 10 minutos(hora)
DESCASC
Precipitaciones diarias en mm
DESCASC
Precipitaciones de 00:00 a 06:00 en mm
DESCASC
Precipitaciones de 06:00 a 12:00 en mm
DESCASC
Precipitaciones de 12:00 a 18:00 en mm
DESCASC
Precipitaciones de 18:00 a 24:00 en mm
DESCASC
25-01-2020 13.1 (16:40) 9.4 (10:00) 11.3 7.22 (04:30) 4.17 (04:30) 19 4.2 9.4 4.6 0.8
24-01-2020 13.3 (12:10) 9.3 (05:10) 11.3 9.72 (15:30) 5.28 (14:10) 7.4 0.2 0 0.4 6.8
23-01-2020 14.3 (14:40) 9.4 (08:00) 11.8 10.28 (09:50) 5.56 (10:10) 9 0 0 0 9
22-01-2020 12.9 (13:50) 7.6 (00:00) 10.2 10 (13:40) 5.28 (14:30) 3 1.6 1.2 0 0.2
21-01-2020 11.7 (16:10) 5.2 (00:00) 8.4 8.61 (11:30) 4.44 (23:50) 0 0 0 0 0
20-01-2020 10.1 (16:20) 4.3 (00:00) 7.2 13.33 (09:10) 6.67 (09:10) 0 0 0 0 0
19-01-2020 14 (00:00) 6.4 (00:00) 10.2 12.5 (00:10) 8.33 (00:10) 0.6 0.2 0 0.4 0
18-01-2020 15.7 (14:50) 10.4 (00:00) 13 12.22 (23:50) 9.17 (23:30) 9 0 1.8 0.4 6.8
17-01-2020 16.6 (15:40) 11.6 (00:00) 14.1 4.44 (03:30) 3.06 (21:00) 0 0 0 0 0
16-01-2020 17.8 (16:20) 7.8 (00:00) 12.8 5.56 (06:40) 3.61 (06:40) 0 0 0 0 0
15-01-2020 17.2 (16:10) 7.8 (00:00) 12.5 6.11 (15:20) 3.06 (02:50) 0 0 0 0 0
14-01-2020 14.5 (16:30) 6.7 (00:00) 10.6 3.89 (01:00) 2.5 (01:40) 0 0 0 0 0
13-01-2020 14.2 (15:00) 6.7 (00:00) 10.4 5 (03:00) 3.06 (03:30) 0 0 0 0 0
12-01-2020 14.8 (16:30) 5.9 (08:50) 10.4 5.28 (10:20) 3.33 (10:20) 0 0 0 0 0
11-01-2020 14.7 (15:50) 5.3 (00:00) 10 5.28 (01:10) 3.06 (00:50) 0 0 0 0 0
10-01-2020 14 (16:30) 9 (00:00) 11.5 7.22 (20:50) 3.89 (20:10) 0 0 0 0 0
09-01-2020 14.7 (16:10) 8.1 (00:00) 11.4 5.28 (02:10) 3.33 (02:10) 0 0 0 0 0
08-01-2020 17 (16:50) 6 (00:00) 11.5 3.89 (23:50) 2.5 (23:50) 0 0 0 0 0
07-01-2020 17.4 (13:30) 5.6 (00:00) 11.5 6.11 (06:50) 3.89 (06:50) 0 0 0 0 0
06-01-2020 15.4 (16:10) 6.8 (00:00) 11.1 6.67 (02:50) 4.44 (03:50) 0 0 0 0 0
05-01-2020 15.9 (15:30) 9.5 (00:00) 12.7 6.39 (13:10) 3.61 (13:10) 0 0 0 0 0
04-01-2020 13 (16:00) 6.3 (00:00) 9.7 6.11 (12:00) 2.78 (11:50) 0 0 0 0 0
03-01-2020 12.9 (15:10) 7 (00:00) 9.9 4.17 (13:50) 1.94 (03:50) 0 0 0 0 0
02-01-2020 15 (15:50) 7.5 (00:00) 11.3 4.72 (03:50) 2.78 (03:10) 0 0 0 0 0
01-01-2020 16.2 (16:50) 7.5 (00:00) 11.9 7.5 (00:30) 4.17 (00:30) 0 0 0 0 0
31-12-2019 16.1 (14:50) 9.1 (00:00) 12.6 9.72 (05:10) 6.11 (04:40) 0 0 0 0 0
30-12-2019 -- (--) -- (--) -- -- (--) -- (--) -- 0 0 0 --
29-12-2019 16.3 (15:50) 11.2 (00:00) 13.7 14.72 (10:40) 8.61 (00:50) 0 0 0 0 0
28-12-2019 19.3 (15:50) 12.2 (00:00) 15.7 12.78 (14:50) 8.06 (23:50) 0 0 0 0 0

Gráficas

Temp. máximas Temp. mínimas Temp. medias Precipitaciones Rachas de viento máximas Velocidades máximas media en intervalos de 10 minutos

Datos horarios

Fecha y hora oficial Temperatura (ºC) Velocidad del viento (km/h) Dirección del viento Racha (km/h) Dirección de racha Precipitación (mm) Presión (hPa) Tendencia (hPa) Humedad (%)
2020-01-26 23:00:00 9.2 4 Sudeste 9 Sudeste 0 -- -- 82
2020-01-26 22:00:00 9.6 6 Sudeste 9 Sudeste 0 -- -- 81
2020-01-26 21:00:00 9.8 6 Sudeste 6 Sudeste 0 -- -- 82
2020-01-26 20:00:00 10.5 0 Calma 4 Nordeste 0 -- -- 79
2020-01-26 19:00:00 11.6 3 Norte 8 Noroeste 0 -- -- 73
2020-01-26 18:00:00 13 7 Noroeste 17 Oeste 0 -- -- 64
2020-01-26 17:00:00 13.4 13 Oeste 18 Oeste 0 -- -- 65
2020-01-26 16:00:00 13 6 Noroeste 13 Noroeste 0 -- -- 76
2020-01-26 15:00:00 12.1 7 Noroeste 17 Noroeste 0 -- -- 82
2020-01-26 14:00:00 11.7 6 Noroeste 15 Noroeste 0 -- -- 85
2020-01-26 13:00:00 10.4 6 Noroeste 16 Noroeste 0 -- -- 91
2020-01-26 12:00:00 11.5 6 Noroeste 12 Oeste 0 -- -- 87
2020-01-26 11:00:00 10.8 7 Oeste 11 Oeste 0 -- -- 89
2020-01-26 10:00:00 9.2 2 Sur 8 Sudeste 0 -- -- 96
2020-01-26 09:00:00 8.6 2 Sudeste 4 Sur 0 -- -- 96
2020-01-26 08:00:00 8.3 0 Calma 6 Nordeste 0.2 -- -- 95
2020-01-26 07:00:00 8.3 4 Nordeste 5 Nordeste 0 -- -- 93
2020-01-26 06:00:00 9.2 0 Calma 4 Sudoeste 0 -- -- 92
2020-01-26 05:00:00 9.9 2 Sudoeste 8 Sudoeste 0 -- -- 93
2020-01-26 04:00:00 9.9 3 Sudoeste 9 Sudoeste 0 -- -- 93
2020-01-26 03:00:00 10 5 Sudoeste 9 Sudoeste 0 -- -- 93
2020-01-26 02:00:00 10 4 Sudoeste 9 Sudoeste 0 -- -- 92
2020-01-26 01:00:00 9.9 4 Sudoeste 11 Sudoeste 0 -- -- 91
2020-01-26 00:00:00 10 3 Sudoeste 9 Oeste 0 -- -- 89
2020-01-25 23:00:00 10.4 5 Sur 9 Sudoeste 0 -- -- 87
2020-01-25 22:00:00 10.5 3 Sudoeste 8 Sur 0 -- -- 86
2020-01-25 21:00:00 10.6 4 Sur 8 Sudeste 0 -- -- 86
2020-01-25 20:00:00 10.4 3 Sur 7 Sudoeste 0.2 -- -- 88
2020-01-25 19:00:00 10.9 5 Oeste 15 Oeste 0.6 -- -- 85
2020-01-25 18:00:00 12.1 4 Sur 15 Sudoeste 0 -- -- 74
2020-01-25 17:00:00 13 3 Sudoeste 12 Oeste 0 -- -- 79
2020-01-25 16:00:00 12.3 4 Sudoeste 10 Este 0 -- -- 83
2020-01-25 15:00:00 11.1 6 Sudeste 15 Este 0.2 -- -- 88
2020-01-25 14:00:00 10.4 8 Sudeste 14 Este 0.6 -- -- 91
2020-01-25 13:00:00 9.8 4 Sudeste 10 Oeste 3.8 -- -- 91
2020-01-25 12:00:00 10 5 Oeste 14 Sudeste 2.8 -- -- 90
2020-01-25 11:00:00 9.9 6 Sudeste 11 Sudeste 2 -- -- 88
2020-01-25 10:00:00 9.4 4 Sudeste 14 Sudoeste 1.4 -- -- 91
2020-01-25 09:00:00 9.6 8 Sudeste 17 Sudeste 2.4 -- -- 89
2020-01-25 08:00:00 10 9 Sudeste 22 Sudeste 0 -- -- 84
2020-01-25 07:00:00 9.7 7 Este 14 Sudeste 0.8 -- -- 91
2020-01-25 06:00:00 9.8 4 Oeste 14 Sudeste 1.4 -- -- 90
2020-01-25 05:00:00 10.1 9 Sudeste 26 Sudeste 2.8 -- -- 88
2020-01-25 04:00:00 10.5 12 Sudeste 23 Sudeste 0 -- -- 86
2020-01-25 03:00:00 10.6 11 Sudeste 20 Sudeste 0 -- -- 81
2020-01-25 02:00:00 10.3 9 Sudeste 15 Sudeste 0 -- -- 81
2020-01-25 01:00:00 10.3 6 Sudeste 15 Sur 0 -- -- 82
2020-01-25 00:00:00 10.6 10 Sur 17 Sudeste 0 -- -- 80
2020-01-24 23:00:00 10.7 12 Sudeste 24 Sudeste 0.2 -- -- 87
2020-01-24 22:00:00 10.6 14 Sudeste 28 Sudeste 2.8 -- -- 89
2020-01-24 21:00:00 10.9 13 Sudeste 28 Sudeste 0.2 -- -- 84
2020-01-24 20:00:00 10.8 14 Sudeste 27 Este 0.8 -- -- 88
2020-01-24 19:00:00 11.1 5 Sudeste 12 Sudeste 2.8 -- -- 88
2020-01-24 18:00:00 12 6 Sur 23 Sudeste 0.4 -- -- 81
2020-01-24 17:00:00 11.8 11 Sudeste 28 Sudeste 0 -- -- 80
2020-01-24 16:00:00 12.4 14 Sudeste 35 Sudeste 0 -- -- 74
2020-01-24 15:00:00 12.5 18 Sudeste 35 Sudeste 0 -- -- 71
2020-01-24 14:00:00 12.6 16 Sudeste 33 Sudeste 0 -- -- 71
2020-01-24 13:00:00 12.5 13 Sudeste 27 Sudeste 0 -- -- 72
2020-01-24 12:00:00 13.1 14 Sudeste 27 Sudeste 0 -- -- 70
2020-01-24 11:00:00 11.1 11 Sudeste 28 Sudeste 0 -- -- 78
2020-01-24 10:00:00 10.3 15 Sudeste 26 Sudeste 0 -- -- 80
2020-01-24 09:00:00 9.7 16 Sudeste 28 Sudeste 0 -- -- 81
2020-01-24 08:00:00 9.4 13 Sudeste 27 Sudeste 0 -- -- 83
2020-01-24 07:00:00 9.4 14 Sudeste 23 Este 0 -- -- 82
2020-01-24 06:00:00 9.4 14 Sudeste 23 Sudeste 0 -- -- 80
2020-01-24 05:00:00 9.4 14 Sudeste 28 Sudeste 0 -- -- 79
2020-01-24 04:00:00 9.5 18 Sudeste 34 Sudeste 0 -- -- 80
2020-01-24 03:00:00 9.8 17 Sudeste 32 Sudeste 0 -- -- 82
2020-01-24 02:00:00 9.8 8 Sudeste 30 Sudeste 0 -- -- 83
2020-01-24 01:00:00 9.9 13 Sudeste 23 Sudeste 0.2 -- -- 86
2020-01-24 00:00:00 9.9 8 Sudeste 17 Sudeste 0.6 -- -- 85
2020-01-23 23:00:00 10.2 9 Sudeste 17 Sudeste 0.4 -- -- 87
2020-01-23 22:00:00 10.1 4 Este 10 Sudeste 2.4 -- -- 89
2020-01-23 21:00:00 10.1 8 Sudeste 17 Sudeste 2 -- -- 90
2020-01-23 20:00:00 10.2 9 Sudeste 20 Sudeste 2 -- -- 88
2020-01-23 19:00:00 10.4 10 Sudeste 24 Sudeste 1.6 -- -- 86
2020-01-23 18:00:00 11.9 12 Sudeste 30 Sudeste 0 -- -- 76
2020-01-23 17:00:00 13.4 13 Sudeste 26 Sudeste 0 -- -- 69
2020-01-23 16:00:00 13.7 14 Sudeste 27 Sudeste 0 -- -- 68
2020-01-23 15:00:00 14.2 14 Sudeste 32 Sudeste 0 -- -- 65
2020-01-23 14:00:00 13.6 15 Sudeste 33 Este 0 -- -- 66
2020-01-23 13:00:00 12.8 17 Sudeste 31 Sudeste 0 -- -- 69
2020-01-23 12:00:00 11.4 18 Sudeste 35 Sudeste 0 -- -- 71
2020-01-23 11:00:00 11.2 18 Sudeste 36 Sudeste 0 -- -- 74
2020-01-23 10:00:00 10.1 17 Sudeste 37 Sudeste 0 -- -- 82
2020-01-23 09:00:00 9.6 14 Sudeste 26 Sudeste 0 -- -- 83
2020-01-23 08:00:00 9.4 15 Sudeste 26 Este 0 -- -- 84
2020-01-23 07:00:00 9.7 13 Sudeste 27 Sudeste 0 -- -- 82
2020-01-23 06:00:00 9.5 6 Sudeste 13 Este 0 -- -- 82
2020-01-23 05:00:00 9.5 3 Sudeste 13 Sudeste 0 -- -- 80
2020-01-23 04:00:00 9.8 8 Sudeste 21 Sudeste 0 -- -- 81
2020-01-23 03:00:00 9.7 11 Sudeste 22 Este 0 -- -- 80
2020-01-23 02:00:00 9.9 13 Sudeste 23 Sudeste 0 -- -- 78
2020-01-23 01:00:00 9.7 10 Sudeste 21 Sudeste 0 -- -- 81
2020-01-23 00:00:00 9.9 8 Sudeste 31 Sudeste 0.2 -- -- 82
2020-01-22 23:00:00 10.3 12 Sudeste 23 Sudeste 0 -- -- 79
2020-01-22 22:00:00 10.5 14 Sudeste 27 Sudeste 0 -- -- 77
2020-01-22 21:00:00 10.2 10 Sudeste 25 Sudeste 0 -- -- 76
2020-01-22 20:00:00 10.3 15 Sudeste 31 Sudeste 0 -- -- 75
2020-01-22 19:00:00 10.6 9 Sudeste 24 Sudeste 0 -- -- 74
2020-01-22 18:00:00 10.9 10 Sudeste 26 Sudeste 0 -- -- 71
2020-01-22 17:00:00 11.1 14 Sudeste 33 Sudeste 0 -- -- 69
2020-01-22 16:00:00 12.1 17 Sudeste 32 Sudeste 0 -- -- 65
2020-01-22 15:00:00 12.2 16 Sudeste 31 Sudeste 0 -- -- 65
2020-01-22 14:00:00 12.4 18 Sudeste 36 Sudeste 0 -- -- 63
2020-01-22 13:00:00 11.5 14 Sudeste 30 Sudeste 0 -- -- 67
2020-01-22 12:00:00 10.5 9 Sudeste 22 Sudeste 0 -- -- 74
2020-01-22 11:00:00 9.2 8 Sudeste 16 Sudeste 0 -- -- 79
2020-01-22 10:00:00 8.4 4 Sudeste 14 Sudeste 0.2 -- -- 84
2020-01-22 09:00:00 8.1 8 Sudeste 17 Sudeste 0.2 -- -- 86
2020-01-22 08:00:00 7.6 8 Sudeste 17 Sudeste 0.8 -- -- 86
2020-01-22 07:00:00 8.1 7 Sudeste 16 Sudeste 0 -- -- 84
2020-01-22 06:00:00 8.3 9 Sudeste 24 Sudeste 0.2 -- -- 84
2020-01-22 05:00:00 8.4 12 Sudeste 26 Sudeste 0 -- -- 87
2020-01-22 04:00:00 8.2 17 Sudeste 28 Sudeste 0 -- -- 87
2020-01-22 03:00:00 8.3 13 Sudeste 26 Sudeste 0.2 -- -- 87
2020-01-22 02:00:00 8.3 13 Sudeste 25 Sudeste 1.2 -- -- 87
2020-01-22 01:00:00 8.6 11 Sudeste 24 Sudeste 0 -- -- 85
2020-01-22 00:00:00 9 14 Sudeste 29 Sudeste 0 -- -- 81
2020-01-21 23:00:00 9 8 Este 21 Sudeste 0 -- -- 79
2020-01-21 22:00:00 8.8 5 Sudeste 14 Este 0 -- -- 77
2020-01-21 21:00:00 9.2 6 Sudeste 23 Este 0 -- -- 73
2020-01-21 20:00:00 9.3 9 Este 16 Este 0 -- -- 71
2020-01-21 19:00:00 9.2 5 Nordeste 15 Nordeste 0 -- -- 71
2020-01-21 18:00:00 9.7 8 Nordeste 16 Norte 0 -- -- 68
2020-01-21 17:00:00 10.8 8 Nordeste 21 Norte 0 -- -- 62
2020-01-21 16:00:00 11.5 4 Nordeste 17 Norte 0 -- -- 58
2020-01-21 15:00:00 10.8 7 Nordeste 24 Nordeste 0 -- -- 61
2020-01-21 14:00:00 10.4 10 Nordeste 28 Nordeste 0 -- -- 61
2020-01-21 13:00:00 10.1 9 Nordeste 30 Este 0 -- -- 63
2020-01-21 12:00:00 8.7 12 Este 31 Nordeste 0 -- -- 68
2020-01-21 11:00:00 8.4 8 Nordeste 20 Nordeste 0 -- -- 71
2020-01-21 10:00:00 6.8 5 Nordeste 19 Este 0 -- -- 74
2020-01-21 09:00:00 6.4 9 Este 26 Nordeste 0 -- -- 75
2020-01-21 08:00:00 5.5 8 Este 18 Nordeste 0 -- -- 79
2020-01-21 07:00:00 5.9 2 Este 22 Este 0 -- -- 77
2020-01-21 06:00:00 6.4 6 Este 17 Este 0 -- -- 75
2020-01-21 05:00:00 6.4 9 Este 15 Este 0 -- -- 77
2020-01-21 04:00:00 6.7 4 Nordeste 13 Este 0 -- -- 76
2020-01-21 03:00:00 7 5 Este 17 Este 0 -- -- 74
2020-01-21 02:00:00 7.4 10 Este 26 Nordeste 0 -- -- 72
2020-01-21 01:00:00 7.8 10 Nordeste 24 Este 0 -- -- 71
2020-01-21 00:00:00 8.1 8 Nordeste 22 Este 0 -- -- 70
2020-01-20 23:00:00 8.3 10 Este 23 Nordeste 0 -- -- 69
2020-01-20 22:00:00 8.4 13 Nordeste 27 Este 0 -- -- 68
2020-01-20 21:00:00 8.3 7 Nordeste 24 Nordeste 0 -- -- 68
2020-01-20 20:00:00 8.7 10 Nordeste 28 Nordeste 0 -- -- 66
2020-01-20 19:00:00 9 7 Nordeste 21 Nordeste 0 -- -- 64
2020-01-20 18:00:00 9.5 9 Nordeste 30 Nordeste 0 -- -- 62
2020-01-20 17:00:00 9.7 14 Este 33 Este 0 -- -- 60
2020-01-20 16:00:00 10 13 Nordeste 40 Este 0 -- -- 58
2020-01-20 15:00:00 9.1 17 Este 33 Nordeste 0 -- -- 61
2020-01-20 14:00:00 7.2 17 Nordeste 39 Nordeste 0 -- -- 62
2020-01-20 13:00:00 7.5 17 Nordeste 46 Este 0 -- -- 61
2020-01-20 12:00:00 6.8 19 Nordeste 45 Nordeste 0 -- -- 64
2020-01-20 11:00:00 5.9 11 Nordeste 36 Este 0 -- -- 64
2020-01-20 10:00:00 5 17 Nordeste 48 Este 0 -- -- 67
2020-01-20 09:00:00 4.9 14 Nordeste 34 Este 0 -- -- 66
2020-01-20 08:00:00 5.3 14 Nordeste 37 Este 0 -- -- 63
2020-01-20 07:00:00 5.2 14 Nordeste 34 Este 0 -- -- 64
2020-01-20 06:00:00 5.4 15 Nordeste 39 Nordeste 0 -- -- 65
2020-01-20 05:00:00 5.3 11 Nordeste 26 Este 0 -- -- 68
2020-01-20 04:00:00 5.3 9 Nordeste 29 Nordeste 0 -- -- 71
2020-01-20 03:00:00 5.7 12 Nordeste 30 Nordeste 0 -- -- 73
2020-01-20 02:00:00 6 11 Nordeste 33 Norte 0 -- -- 73
2020-01-20 01:00:00 6.3 16 Nordeste 41 Nordeste 0 -- -- 73
2020-01-20 00:00:00 6.4 11 Nordeste 31 Norte 0 -- -- 77
2020-01-19 23:00:00 7.1 14 Nordeste 34 Nordeste 0 -- -- 74
2020-01-19 22:00:00 7.7 9 Nordeste 35 Norte 0 -- -- 73
2020-01-19 21:00:00 8.2 10 Nordeste 32 Norte 0 -- -- 71
2020-01-19 20:00:00 9.5 15 Nordeste 32 Nordeste 0 -- -- 67
2020-01-19 19:00:00 10.2 4 Nordeste 20 Nordeste 0 -- -- 71
2020-01-19 18:00:00 10.8 10 Nordeste 32 Norte 0 -- -- 68
2020-01-19 17:00:00 10.3 16 Norte 41 Norte 0.4 -- -- 71
2020-01-19 16:00:00 12.1 9 Norte 23 Norte 0 -- -- 66
2020-01-19 15:00:00 12 13 Nordeste 29 Norte 0 -- -- 65
2020-01-19 14:00:00 12.3 12 Norte 27 Nordeste 0 -- -- 68
2020-01-19 13:00:00 11.3 12 Noroeste 22 Noroeste 0 -- -- 78
2020-01-19 12:00:00 10.7 11 Noroeste 21 Noroeste 0 -- -- 80
2020-01-19 11:00:00 9.9 12 Oeste 19 Oeste 0 -- -- 86
2020-01-19 10:00:00 8.6 6 Oeste 12 Oeste 0 -- -- 90
2020-01-19 09:00:00 8.2 9 Oeste 15 Oeste 0 -- -- 92
2020-01-19 08:00:00 8.2 9 Oeste 15 Oeste 0 -- -- 95
2020-01-19 07:00:00 8.4 7 Oeste 17 Oeste 0 -- -- 95
2020-01-19 06:00:00 8.9 12 Oeste 26 Oeste 0 -- -- 94
2020-01-19 05:00:00 10 17 Oeste 25 Oeste 0 -- -- 93
2020-01-19 04:00:00 10 18 Oeste 26 Oeste 0 -- -- 93
2020-01-19 03:00:00 10.5 17 Oeste 25 Oeste 0 -- -- 92
2020-01-19 02:00:00 11.3 17 Oeste 26 Oeste 0 -- -- 92
2020-01-19 01:00:00 12.1 20 Oeste 45 Noroeste 0.2 -- -- 92
2020-01-19 00:00:00 14 30 Oeste 44 Oeste 0 -- -- 95
2020-01-18 23:00:00 14.5 24 Oeste 40 Oeste 0.2 -- -- 95
2020-01-18 22:00:00 14.5 23 Oeste 32 Oeste 3.6 -- -- 95
2020-01-18 21:00:00 14.4 17 Oeste 33 Sudoeste 2.2 -- -- 93
2020-01-18 20:00:00 14.4 19 Oeste 31 Sudoeste 0.8 -- -- 92
2020-01-18 19:00:00 14.3 17 Sudoeste 30 Sudoeste 0 -- -- 90
2020-01-18 18:00:00 14.7 17 Sudoeste 35 Sudoeste 0 -- -- 86
2020-01-18 17:00:00 15.1 22 Sudoeste 35 Sudoeste 0 -- -- 84
2020-01-18 16:00:00 15.2 24 Sudoeste 41 Sudoeste 0 -- -- 83
2020-01-18 15:00:00 15.5 22 Oeste 36 Oeste 0 -- -- 77
2020-01-18 14:00:00 14.9 10 Sudoeste 20 Sudoeste 0 -- -- 73
2020-01-18 13:00:00 14 7 Sudoeste 14 Sudoeste 0.4 -- -- 80
2020-01-18 12:00:00 12.5 9 Sur 16 Sur 0.8 -- -- 82
2020-01-18 11:00:00 11 8 Sudeste 14 Sudeste 0.6 -- -- 80
2020-01-18 10:00:00 10.8 5 Sudeste 7 Sudeste 0.4 -- -- 79
2020-01-18 09:00:00 11.1 2 Noroeste 5 Noroeste 0 -- -- 75
2020-01-18 08:00:00 10.9 2 Sudeste 9 Sudeste 0 -- -- 75
2020-01-18 07:00:00 10.9 6 Sudeste 13 Sudeste 0 -- -- 73
2020-01-18 06:00:00 10.8 2 Sudeste 4 Este 0 -- -- 77
2020-01-18 05:00:00 10.6 0 Calma 4 Este 0 -- -- 77
2020-01-18 04:00:00 11.1 4 Este 9 Sudeste 0 -- -- 72
2020-01-18 03:00:00 10.6 3 Sur 4 Sur 0 -- -- 74
2020-01-18 02:00:00 10.7 3 Sudeste 8 Sudeste 0 -- -- 73
2020-01-18 01:00:00 12.2 6 Este 9 Sudeste 0 -- -- 68
2020-01-18 00:00:00 12 5 Sudeste 9 Sudeste 0 -- -- 76
2020-01-17 23:00:00 11.6 2 Sudeste 9 Sudeste 0 -- -- 80
2020-01-17 22:00:00 12.8 8 Sudeste 14 Sudeste 0 -- -- 77
2020-01-17 21:00:00 12.7 11 Sudeste 15 Sudeste 0 -- -- 78
2020-01-17 20:00:00 13.2 4 Este 9 Sudeste 0 -- -- 75
2020-01-17 19:00:00 13.7 3 Este 4 Nordeste 0 -- -- 73
2020-01-17 18:00:00 15.3 2 Norte 6 Noroeste 0 -- -- 68
2020-01-17 17:00:00 16.1 3 Noroeste 9 Norte 0 -- -- 65
2020-01-17 16:00:00 16.1 4 Norte 8 Oeste 0 -- -- 67
2020-01-17 15:00:00 16.3 3 Noroeste 12 Noroeste 0 -- -- 67
2020-01-17 14:00:00 15.7 4 Noroeste 10 Noroeste 0 -- -- 68
2020-01-17 13:00:00 14.7 2 Sudoeste 7 Nordeste 0 -- -- 65
2020-01-17 12:00:00 12.9 5 Nordeste 13 Nordeste 0 -- -- 67
2020-01-17 11:00:00 12.6 5 Nordeste 10 Norte 0 -- -- 64
2020-01-17 10:00:00 12.5 3 Norte 8 Norte 0 -- -- 62
2020-01-17 09:00:00 12.8 4 Sur 11 Sudoeste 0 -- -- 63
2020-01-17 08:00:00 12.4 3 Sudoeste 13 Sur 0 -- -- 57
2020-01-17 07:00:00 12.5 6 Sur 13 Sudoeste 0 -- -- 52
2020-01-17 06:00:00 12.5 7 Sur 13 Sur 0 -- -- 44
2020-01-17 05:00:00 12.4 8 Sur 15 Sur 0 -- -- 41
2020-01-17 04:00:00 12.9 8 Sur 16 Sudeste 0 -- -- 40
2020-01-17 03:00:00 12.3 8 Sur 15 Sur 0 -- -- 43
2020-01-17 02:00:00 12.3 8 Sur 14 Sur 0 -- -- 46
2020-01-17 01:00:00 12.2 8 Sur 12 Sur 0 -- -- 50
2020-01-17 00:00:00 12 9 Sur 15 Sur 0 -- -- 59
2020-01-16 23:00:00 12.6 7 Sur 15 Sur 0 -- -- 65
2020-01-16 22:00:00 12.7 7 Sur 12 Sudoeste 0 -- -- 64
2020-01-16 21:00:00 12.5 5 Sudoeste 11 Sudoeste 0 -- -- 55
2020-01-16 20:00:00 13.3 7 Sudeste 8 Sudeste 0 -- -- 53
2020-01-16 19:00:00 14.6 0 Calma 5 Oeste 0 -- -- 49
2020-01-16 18:00:00 16.9 5 Oeste 13 Oeste 0 -- -- 44
2020-01-16 17:00:00 17.8 8 Oeste 15 Oeste 0 -- -- 39
2020-01-16 16:00:00 17.6 8 Noroeste 17 Oeste 0 -- -- 39
2020-01-16 15:00:00 17.5 8 Noroeste 15 Noroeste 0 -- -- 38
2020-01-16 14:00:00 17 7 Noroeste 13 Noroeste 0 -- -- 35
2020-01-16 13:00:00 16.5 5 Oeste 9 Noroeste 0 -- -- 45
2020-01-16 12:00:00 13.9 3 Noroeste 5 Noroeste 0 -- -- 56
2020-01-16 11:00:00 12.2 0 Calma 9 Oeste 0 -- -- 67
2020-01-16 10:00:00 10.3 0 Calma 7 Este 0 -- -- 66
2020-01-16 09:00:00 7.8 0 Calma 9 Sudeste 0 -- -- 73
2020-01-16 08:00:00 11.4 8 Sudeste 17 Sudeste 0 -- -- 58
2020-01-16 07:00:00 10.9 12 Sudeste 20 Sudeste 0 -- -- 61
2020-01-16 06:00:00 10.7 0 Calma 16 Sudeste 0 -- -- 64
2020-01-16 05:00:00 10.8 11 Sudeste 18 Sudeste 0 -- -- 64
2020-01-16 04:00:00 10.6 7 Este 12 Sudeste 0 -- -- 70
2020-01-16 03:00:00 10.8 8 Este 14 Este 0 -- -- 69
2020-01-16 02:00:00 11.5 8 Este 14 Este 0 -- -- 65
2020-01-16 01:00:00 11.5 8 Sudeste 12 Sudeste 0 -- -- 64
2020-01-16 00:00:00 11.7 6 Este 10 Este 0 -- -- 65
2020-01-15 23:00:00 11.8 4 Nordeste 9 Este 0 -- -- 59
2020-01-15 22:00:00 11.8 4 Sudeste 8 Sudeste 0 -- -- 62
2020-01-15 21:00:00 12.5 6 Sudeste 9 Sudeste 0 -- -- 61
2020-01-15 20:00:00 13.2 4 Sur 7 Sudoeste 0 -- -- 63
2020-01-15 19:00:00 14.7 3 Sudeste 6 Este 0 -- -- 58
2020-01-15 18:00:00 16.6 3 Norte 8 Noroeste 0 -- -- 52
2020-01-15 17:00:00 17 5 Norte 14 Noroeste 0 -- -- 50
2020-01-15 16:00:00 17.1 6 Noroeste 22 Oeste 0 -- -- 49
2020-01-15 15:00:00 16.6 3 Nordeste 13 Noroeste 0 -- -- 49
2020-01-15 14:00:00 16.4 4 Oeste 10 Oeste 0 -- -- 50
2020-01-15 13:00:00 15.3 0 Calma 6 Este 0 -- -- 53
2020-01-15 12:00:00 13.7 4 Oeste 7 Noroeste 0 -- -- 64
2020-01-15 11:00:00 13.1 0 Calma 6 Este 0 -- -- 59
2020-01-15 10:00:00 10.6 2 Sudeste 5 Sudeste 0 -- -- 68
2020-01-15 09:00:00 8.1 3 Este 7 Sudeste 0 -- -- 73
2020-01-15 08:00:00 9.3 3 Este 13 Sudeste 0 -- -- 67
2020-01-15 07:00:00 9.8 8 Sudeste 16 Este 0 -- -- 67
2020-01-15 06:00:00 9.4 8 Sudeste 17 Sudeste 0 -- -- 68
2020-01-15 05:00:00 9.2 9 Sudeste 16 Sudeste 0 -- -- 68
2020-01-15 04:00:00 9.2 7 Sudeste 17 Sudeste 0 -- -- 70
2020-01-15 03:00:00 9.2 10 Sudeste 16 Este 0 -- -- 71
2020-01-15 02:00:00 9.6 10 Sudeste 15 Sudeste 0 -- -- 72
2020-01-15 01:00:00 9.9 9 Sudeste 14 Sudeste 0 -- -- 73
2020-01-15 00:00:00 10.1 6 Sudeste 9 Sudeste 0 -- -- 71
2020-01-14 23:00:00 9.9 6 Sudeste 9 Este 0 -- -- 71
2020-01-14 22:00:00 9.8 6 Sudeste 9 Sudeste 0 -- -- 71
2020-01-14 21:00:00 9.9 5 Sudeste 8 Sudeste 0 -- -- 70
2020-01-14 20:00:00 10.6 0 Calma 5 Nordeste 0 -- -- 66
2020-01-14 19:00:00 11.4 3 Norte 9 Noroeste 0 -- -- 63
2020-01-14 18:00:00 13.1 5 Noroeste 9 Noroeste 0 -- -- 57
2020-01-14 17:00:00 14.1 5 Noroeste 9 Noroeste 0 -- -- 53
2020-01-14 16:00:00 14.4 5 Oeste 11 Noroeste 0 -- -- 54
2020-01-14 15:00:00 13.5 6 Oeste 14 Noroeste 0 -- -- 57
2020-01-14 14:00:00 13.2 4 Noroeste 12 Noroeste 0 -- -- 58
2020-01-14 13:00:00 11.9 5 Noroeste 11 Noroeste 0 -- -- 68
2020-01-14 12:00:00 10.2 3 Noroeste 6 Noroeste 0 -- -- 76
2020-01-14 11:00:00 8.6 2 Oeste 4 Oeste 0 -- -- 81
2020-01-14 10:00:00 7.1 0 Calma 5 Oeste 0 -- -- 83
2020-01-14 09:00:00 6.7 2 Oeste 11 Este 0 -- -- 82
2020-01-14 08:00:00 9.6 8 Este 13 Sudeste 0 -- -- 69
2020-01-14 07:00:00 8.6 4 Sudeste 12 Sudeste 0 -- -- 78
2020-01-14 06:00:00 8.4 5 Sudeste 7 Sudeste 0 -- -- 79
2020-01-14 05:00:00 7.2 0 Calma 4 Norte 0 -- -- 79
2020-01-14 04:00:00 8 2 Sudeste 8 Sudeste 0 -- -- 78
2020-01-14 03:00:00 7.5 4 Sudeste 13 Este 0 -- -- 76
2020-01-14 02:00:00 9.2 7 Sudeste 13 Sudeste 0 -- -- 72
2020-01-14 01:00:00 9.3 8 Sudeste 14 Sudeste 0 -- -- 70
2020-01-14 00:00:00 9.4 8 Sudeste 15 Sudeste 0 -- -- 70
2020-01-13 23:00:00 9.5 7 Sudeste 12 Sudeste 0 -- -- 69
2020-01-13 22:00:00 9.6 7 Sudeste 9 Este 0 -- -- 69
2020-01-13 21:00:00 9.6 0 Calma 4 Sudeste 0 -- -- 69
2020-01-13 20:00:00 10.6 2 Este 4 Nordeste 0 -- -- 65
2020-01-13 19:00:00 11.4 3 Norte 6 Norte 0 -- -- 61
2020-01-13 18:00:00 13.3 3 Norte 9 Nordeste 0 -- -- 54
2020-01-13 17:00:00 14 3 Norte 9 Noroeste 0 -- -- 52
2020-01-13 16:00:00 14 2 Noroeste 8 Norte 0 -- -- 51
2020-01-13 15:00:00 14.2 3 Noroeste 13 Noroeste 0 -- -- 49
2020-01-13 14:00:00 13.1 6 Noroeste 12 Noroeste 0 -- -- 56
2020-01-13 13:00:00 12.3 5 Noroeste 9 Noroeste 0 -- -- 62
2020-01-13 12:00:00 11 6 Norte 9 Norte 0 -- -- 73
2020-01-13 11:00:00 10.5 3 Oeste 5 Oeste 0 -- -- 74
2020-01-13 10:00:00 8 0 Calma 9 Sudeste 0 -- -- 79
2020-01-13 09:00:00 7.2 5 Sudeste 8 Sudeste 0 -- -- 78
2020-01-13 08:00:00 7.1 3 Sudeste 9 Sudeste 0 -- -- 80
2020-01-13 07:00:00 7.7 3 Sudeste 12 Sudeste 0 -- -- 81
2020-01-13 06:00:00 7.9 5 Sudeste 13 Sudeste 0 -- -- 80
2020-01-13 05:00:00 8 5 Sudeste 15 Sudeste 0 -- -- 82
2020-01-13 04:00:00 8.3 9 Sudeste 17 Este 0 -- -- 81
2020-01-13 03:00:00 9.3 9 Este 18 Este 0 -- -- 76
2020-01-13 02:00:00 9.2 6 Este 14 Sudeste 0 -- -- 75
2020-01-13 01:00:00 9.5 7 Este 12 Este 0 -- -- 69
2020-01-13 00:00:00 9.6 7 Sudeste 14 Este 0 -- -- 62
2020-01-12 23:00:00 10 9 Sudeste 13 Sudeste 0 -- -- 60
2020-01-12 22:00:00 9.8 5 Sudeste 14 Sudeste 0 -- -- 62
2020-01-12 21:00:00 10.4 8 Sudeste 11 Sudeste 0 -- -- 60
2020-01-12 20:00:00 11.4 4 Este 9 Este 0 -- -- 56
2020-01-12 19:00:00 12 3 Este 7 Norte 0 -- -- 55
2020-01-12 18:00:00 14.2 3 Norte 9 Norte 0 -- -- 49
2020-01-12 17:00:00 14.8 5 Norte 12 Norte 0 -- -- 46
2020-01-12 16:00:00 14.6 8 Nordeste 13 Norte 0 -- -- 46
2020-01-12 15:00:00 14.4 5 Norte 13 Norte 0 -- -- 56
2020-01-12 14:00:00 13.7 6 Norte 13 Norte 0 -- -- 54
2020-01-12 13:00:00 13.4 7 Norte 14 Noroeste 0 -- -- 64
2020-01-12 12:00:00 13.3 6 Este 12 Sudeste 0 -- -- 63
2020-01-12 11:00:00 11.1 3 Noroeste 19 Sudeste 0 -- -- 75
2020-01-12 10:00:00 9.4 8 Sudeste 17 Sudeste 0 -- -- 80
2020-01-12 09:00:00 6.7 5 Sudeste 13 Sudeste 0 -- -- 86
2020-01-12 08:00:00 7.2 0 Calma 13 Sudeste 0 -- -- 76
2020-01-12 07:00:00 8.1 7 Sudeste 12 Este 0 -- -- 76
2020-01-12 06:00:00 7.7 3 Nordeste 5 Nordeste 0 -- -- 77
2020-01-12 05:00:00 7.6 0 Calma 4 Nordeste 0 -- -- 78
2020-01-12 04:00:00 8.1 0 Calma 4 Noroeste 0 -- -- 77
2020-01-12 03:00:00 8.4 4 Nordeste 7 Norte 0 -- -- 76
2020-01-12 02:00:00 9.1 0 Calma 10 Sudeste 0 -- -- 73
2020-01-12 01:00:00 9.9 5 Sudeste 15 Sudeste 0 -- -- 71
2020-01-12 00:00:00 10.4 8 Sudeste 14 Este 0 -- -- 69
2020-01-11 23:00:00 10.2 5 Sudeste 10 Sudeste 0 -- -- 68
2020-01-11 22:00:00 10.5 6 Sudeste 10 Este 0 -- -- 59
2020-01-11 21:00:00 10.3 5 Sudeste 8 Sudeste 0 -- -- 61
2020-01-11 20:00:00 10.7 5 Sudeste 9 Sudeste 0 -- -- 61
2020-01-11 19:00:00 12 3 Este 4 Nordeste 0 -- -- 56
2020-01-11 18:00:00 14 0 Calma 9 Norte 0 -- -- 49
2020-01-11 17:00:00 14.6 5 Norte 13 Norte 0 -- -- 47
2020-01-11 16:00:00 14.7 6 Nordeste 14 Norte 0 -- -- 45
2020-01-11 15:00:00 14.6 5 Norte 15 Norte 0 -- -- 47
2020-01-11 14:00:00 13.9 7 Norte 14 Nordeste 0 -- -- 50
2020-01-11 13:00:00 12.7 6 Norte 12 Norte 0 -- -- 55
2020-01-11 12:00:00 12.5 5 Este 14 Sudeste 0 -- -- 47
2020-01-11 11:00:00 10.5 5 Este 13 Sudeste 0 -- -- 54
2020-01-11 10:00:00 5.5 3 Noroeste 10 Este 0 -- -- 71
2020-01-11 09:00:00 7.2 5 Este 11 Este 0 -- -- 61
2020-01-11 08:00:00 6.7 4 Nordeste 9 Este 0 -- -- 64
2020-01-11 07:00:00 5.5 2 Sur 10 Nordeste 0 -- -- 70
2020-01-11 06:00:00 5.6 0 Calma 5 Sur 0 -- -- 70
2020-01-11 05:00:00 6 2 Sudeste 6 Sudeste 0 -- -- 69
2020-01-11 04:00:00 6.5 3 Sur 12 Este 0 -- -- 67
2020-01-11 03:00:00 8.4 3 Norte 15 Este 0 -- -- 59
2020-01-11 02:00:00 9.1 6 Este 19 Este 0 -- -- 56
2020-01-11 01:00:00 9.4 9 Este 18 Nordeste 0 -- -- 56
2020-01-11 00:00:00 9.7 10 Este 21 Este 0 -- -- 54
2020-01-10 23:00:00 10 11 Este 22 Nordeste 0 -- -- 52
2020-01-10 22:00:00 10.4 11 Este 23 Este 0 -- -- 50
2020-01-10 21:00:00 11.2 14 Este 26 Este 0 -- -- 49
2020-01-10 20:00:00 11.8 13 Este 23 Este 0 -- -- 49
2020-01-10 19:00:00 11.9 5 Este 12 Nordeste 0 -- -- 58
2020-01-10 18:00:00 13.4 4 Nordeste 18 Nordeste 0 -- -- 57
2020-01-10 17:00:00 13.6 7 Nordeste 19 Nordeste 0 -- -- 59
2020-01-10 16:00:00 13.2 9 Nordeste 18 Este 0 -- -- 62
2020-01-10 15:00:00 12.5 5 Norte 18 Norte 0 -- -- 74
2020-01-10 14:00:00 11.9 8 Norte 15 Norte 0 -- -- 76
2020-01-10 13:00:00 11.4 7 Norte 14 Norte 0 -- -- 77
2020-01-10 12:00:00 10.6 3 Norte 8 Nordeste 0 -- -- 81
2020-01-10 11:00:00 9.4 0 Calma 7 Noroeste 0 -- -- 86
2020-01-10 10:00:00 9.2 4 Nordeste 8 Nordeste 0 -- -- 85
2020-01-10 09:00:00 9.4 0 Calma 3 Sudeste 0 -- -- 84
2020-01-10 08:00:00 9.9 0 Calma 4 Sudeste 0 -- -- 82
2020-01-10 07:00:00 9.9 3 Sudeste 4 Sudeste 0 -- -- 81
2020-01-10 06:00:00 9.8 0 Calma 5 Sudeste 0 -- -- 81
2020-01-10 05:00:00 9.7 2 Sur 4 Sudeste 0 -- -- 82
2020-01-10 04:00:00 9.5 3 Sur 8 Sur 0 -- -- 82
2020-01-10 03:00:00 9.3 5 Sur 10 Sudeste 0 -- -- 83
2020-01-10 02:00:00 9.3 5 Sur 9 Sur 0 -- -- 82
2020-01-10 01:00:00 9.3 5 Sur 11 Sudeste 0 -- -- 81
2020-01-10 00:00:00 9.2 5 Sur 7 Sur 0 -- -- 79
2020-01-09 23:00:00 9.7 3 Sudeste 5 Sur 0 -- -- 78
2020-01-09 22:00:00 10.1 2 Sudeste 7 Sudeste 0 -- -- 76
2020-01-09 21:00:00 10.3 6 Sudeste 8 Sudeste 0 -- -- 76
2020-01-09 20:00:00 10.9 0 Calma 7 Noroeste 0 -- -- 73
2020-01-09 19:00:00 11.9 3 Norte 9 Norte 0 -- -- 69
2020-01-09 18:00:00 13.9 4 Norte 9 Norte 0 -- -- 62
2020-01-09 17:00:00 14.6 5 Norte 17 Noroeste 0 -- -- 60
2020-01-09 16:00:00 14.5 10 Noroeste 15 Noroeste 0 -- -- 62
2020-01-09 15:00:00 14.4 7 Noroeste 14 Oeste 0 -- -- 62
2020-01-09 14:00:00 13.4 3 Norte 14 Noroeste 0 -- -- 66
2020-01-09 13:00:00 12.3 8 Noroeste 13 Noroeste 0 -- -- 72
2020-01-09 12:00:00 11.7 6 Noroeste 10 Noroeste 0 -- -- 73
2020-01-09 11:00:00 11.7 0 Calma 8 Sudeste 0 -- -- 70
2020-01-09 10:00:00 9.9 3 Sudeste 6 Sudeste 0 -- -- 75
2020-01-09 09:00:00 8.1 3 Sudeste 4 Sudeste 0 -- -- 81
2020-01-09 08:00:00 8.5 2 Nordeste 6 Este 0 -- -- 80
2020-01-09 07:00:00 8.2 3 Nordeste 5 Nordeste 0 -- -- 78
2020-01-09 06:00:00 8.4 3 Nordeste 6 Norte 0 -- -- 75
2020-01-09 05:00:00 9 4 Sudeste 6 Sudeste 0 -- -- 74
2020-01-09 04:00:00 9.6 3 Nordeste 17 Sudeste 0 -- -- 69
2020-01-09 03:00:00 10.3 10 Sudeste 19 Sudeste 0 -- -- 69
2020-01-09 02:00:00 10.6 12 Sudeste 16 Este 0 -- -- 67
2020-01-09 01:00:00 11.1 10 Sudeste 17 Sudeste 0 -- -- 60
2020-01-09 00:00:00 11.6 9 Sudeste 14 Sudeste 0 -- -- 62
2020-01-08 23:00:00 11.3 4 Este 5 Nordeste 0 -- -- 54
2020-01-08 22:00:00 11.9 0 Calma 6 Sudeste 0 -- -- 54
2020-01-08 21:00:00 11.9 6 Sudeste 8 Sudeste 0 -- -- 61
2020-01-08 20:00:00 12.1 4 Sudeste 7 Sudeste 0 -- -- 62
2020-01-08 19:00:00 13.3 5 Sudeste 7 Sudeste 0 -- -- 59
2020-01-08 18:00:00 15.7 3 Norte 6 Noroeste 0 -- -- 50
2020-01-08 17:00:00 17 4 Oeste 7 Oeste 0 -- -- 46
2020-01-08 16:00:00 16.3 4 Noroeste 8 Norte 0 -- -- 49
2020-01-08 15:00:00 15.6 5 Noroeste 12 Norte 0 -- -- 51
2020-01-08 14:00:00 14.9 5 Oeste 8 Oeste 0 -- -- 54
2020-01-08 13:00:00 12.3 5 Nordeste 10 Noroeste 0 -- -- 62
2020-01-08 12:00:00 11 5 Oeste 8 Oeste 0 -- -- 67
2020-01-08 11:00:00 9.2 3 Noroeste 5 Noroeste 0 -- -- 64
2020-01-08 10:00:00 8.2 0 Calma 4 Oeste 0 -- -- 73
2020-01-08 09:00:00 6 0 Calma 3 Sur 0 -- -- 76
2020-01-08 08:00:00 8.7 2 Norte 5 Este 0 -- -- 65
2020-01-08 07:00:00 7.8 2 Sudeste 5 Nordeste 0 -- -- 72
2020-01-08 06:00:00 7.7 3 Este 5 Sudeste 0 -- -- 71
2020-01-08 05:00:00 8 2 Noroeste 4 Noroeste 0 -- -- 68
2020-01-08 04:00:00 8.6 0 Calma 0 Calma 0 -- -- 65
2020-01-08 03:00:00 9.2 0 Calma 5 Sudeste 0 -- -- 65
2020-01-08 02:00:00 9.5 4 Sudeste 6 Sudeste 0 -- -- 66
2020-01-08 01:00:00 9.6 3 Sudeste 4 Sudeste 0 -- -- 65
2020-01-08 00:00:00 10 0 Calma 3 Sudeste 0 -- -- 63
2020-01-07 23:00:00 11.2 3 Sudeste 9 Sudeste 0 -- -- 60
2020-01-07 22:00:00 11.9 0 Calma 8 Nordeste 0 -- -- 59
2020-01-07 21:00:00 12.2 0 Calma 5 Este 0 -- -- 58
2020-01-07 20:00:00 12.7 4 Este 11 Sudeste 0 -- -- 62
2020-01-07 19:00:00 13.8 4 Sudeste 9 Nordeste 0 -- -- 58
2020-01-07 18:00:00 16 4 Nordeste 9 Norte 0 -- -- 52
2020-01-07 17:00:00 17.1 6 Norte 13 Norte 0 -- -- 48
2020-01-07 16:00:00 17.3 8 Norte 14 Norte 0 -- -- 49
2020-01-07 15:00:00 17 8 Nordeste 19 Nordeste 0 -- -- 48
2020-01-07 14:00:00 16.7 9 Nordeste 19 Nordeste 0 -- -- 51
2020-01-07 13:00:00 15.3 7 Norte 17 Sudeste 0 -- -- 52
2020-01-07 12:00:00 11.5 4 Norte 16 Norte 0 -- -- 74
2020-01-07 11:00:00 9.5 3 Sur 8 Sur 0 -- -- 77
2020-01-07 10:00:00 5.8 3 Norte 10 Este 0 -- -- 86
2020-01-07 09:00:00 6.9 4 Este 13 Este 0 -- -- 78
2020-01-07 08:00:00 8.5 3 Sudeste 15 Sudeste 0 -- -- 79
2020-01-07 07:00:00 7.8 11 Sudeste 22 Sudeste 0 -- -- 84
2020-01-07 06:00:00 6.5 4 Norte 17 Sudeste 0 -- -- 81
2020-01-07 05:00:00 8.9 8 Sudeste 18 Este 0 -- -- 77
2020-01-07 04:00:00 9.3 10 Este 18 Sudeste 0 -- -- 76
2020-01-07 03:00:00 9.7 8 Sudeste 12 Este 0 -- -- 75
2020-01-07 02:00:00 10 8 Sudeste 14 Sudeste 0 -- -- 76
2020-01-07 01:00:00 9.8 9 Este 15 Sudeste 0 -- -- 76
2020-01-07 00:00:00 10.2 5 Sudeste 10 Este 0 -- -- 74
2020-01-06 23:00:00 10.5 4 Este 15 Sudeste 0 -- -- 74
2020-01-06 22:00:00 11.5 9 Sudeste 17 Sudeste 0 -- -- 71
2020-01-06 21:00:00 11.4 8 Este 14 Sudeste 0 -- -- 71
2020-01-06 20:00:00 11.4 6 Sur 9 Sur 0 -- -- 74
2020-01-06 19:00:00 12.4 4 Este 7 Nordeste 0 -- -- 71
2020-01-06 18:00:00 14.3 4 Nordeste 9 Norte 0 -- -- 66
2020-01-06 17:00:00 15.2 4 Norte 8 Este 0 -- -- 59
2020-01-06 16:00:00 15.3 3 Oeste 11 Oeste 0 -- -- 59
2020-01-06 15:00:00 15.1 2 Sudoeste 10 Oeste 0 -- -- 59
2020-01-06 14:00:00 14.3 4 Oeste 13 Oeste 0 -- -- 61
2020-01-06 13:00:00 13.1 7 Noroeste 13 Oeste 0 -- -- 65
2020-01-06 12:00:00 13 4 Oeste 8 Oeste 0 -- -- 67
2020-01-06 11:00:00 11.5 4 Este 10 Este 0 -- -- 71
2020-01-06 10:00:00 9.7 4 Sudeste 8 Este 0 -- -- 76